createdAt,value
2023-03-29T00:00:18.347Z,19.9
2023-03-29T00:05:22.402Z,19.9
2023-03-29T00:10:18.863Z,19.9
2023-03-29T00:15:13.887Z,19.9
2023-03-29T00:20:25.787Z,19.8
2023-03-29T00:25:16.124Z,19.8
2023-03-29T00:30:16.411Z,19.8
2023-03-29T00:35:21.782Z,19.8
2023-03-29T00:40:17.873Z,19.8
2023-03-29T00:45:16.158Z,19.8
2023-03-29T00:50:22.291Z,19.8
2023-03-29T00:55:18.408Z,19.8
2023-03-29T01:00:24.409Z,19.8
2023-03-29T01:05:20.452Z,19.8
2023-03-29T01:10:22.678Z,19.8
2023-03-29T01:15:28.666Z,19.8
2023-03-29T01:20:15.627Z,19.8
2023-03-29T01:25:13.742Z,19.8
2023-03-29T01:30:15.771Z,19.7
2023-03-29T01:35:18.274Z,19.7
2023-03-29T01:40:18.457Z,19.7
2023-03-29T01:45:16.622Z,19.7
2023-03-29T01:50:20.128Z,19.7
2023-03-29T01:55:22.178Z,19.7
2023-03-29T02:00:24.170Z,19.7
2023-03-29T02:05:16.235Z,19.7
2023-03-29T02:10:16.634Z,19.7
2023-03-29T02:15:18.285Z,19.7
2023-03-29T02:20:16.768Z,19.7
2023-03-29T02:25:24.124Z,19.7
2023-03-29T02:30:16.232Z,19.7
2023-03-29T02:35:18.470Z,19.7
2023-03-29T02:40:20.500Z,19.6
2023-03-29T02:45:22.436Z,19.6
2023-03-29T02:50:16.383Z,19.6
2023-03-29T02:55:14.616Z,19.6
2023-03-29T03:00:20.579Z,19.6
2023-03-29T03:05:14.550Z,19.6
2023-03-29T03:10:22.641Z,19.6
2023-03-29T03:15:16.704Z,19.6
2023-03-29T03:20:16.013Z,19.6
2023-03-29T03:25:14.244Z,19.6
2023-03-29T03:30:14.280Z,19.6
2023-03-29T03:35:14.169Z,19.6
2023-03-29T03:40:20.046Z,19.6
2023-03-29T03:45:22.026Z,19.6
2023-03-29T03:50:19.991Z,19.6
2023-03-29T03:55:29.819Z,19.6
2023-03-29T04:00:15.776Z,19.6
2023-03-29T04:05:17.896Z,19.6
2023-03-29T04:10:18.090Z,19.7
2023-03-29T04:15:20.418Z,19.7
2023-03-29T04:20:16.341Z,19.7
2023-03-29T04:25:14.802Z,19.8
2023-03-29T04:30:14.088Z,19.9
2023-03-29T04:35:15.949Z,20
2023-03-29T04:40:14.270Z,20
2023-03-29T04:45:14.442Z,20
2023-03-29T04:50:18.626Z,20
2023-03-29T04:55:14.806Z,20
2023-03-29T05:00:13.770Z,20
2023-03-29T05:05:18.138Z,20
2023-03-29T05:10:20.524Z,20
2023-03-29T05:15:14.343Z,20
2023-03-29T05:20:24.320Z,20
2023-03-29T05:25:22.268Z,20
2023-03-29T05:30:16.288Z,20
2023-03-29T05:35:18.659Z,20
2023-03-29T05:40:20.024Z,20
2023-03-29T05:45:18.159Z,20
2023-03-29T05:50:20.487Z,20
2023-03-29T05:55:14.262Z,20
2023-03-29T06:00:14.200Z,19.9
2023-03-29T06:05:20.031Z,19.9
2023-03-29T06:10:21.876Z,19.9
2023-03-29T06:15:13.952Z,19.9
2023-03-29T06:20:18.340Z,19.9
2023-03-29T06:25:22.533Z,19.9
2023-03-29T06:30:16.606Z,19.9
2023-03-29T06:35:23.776Z,19.9
2023-03-29T06:40:15.567Z,19.9
2023-03-29T06:45:14.777Z,19.9
2023-03-29T06:50:19.911Z,19.9
2023-03-29T06:55:18.061Z,19.8
2023-03-29T07:00:22.334Z,19.9
2023-03-29T07:05:14.334Z,19.9
2023-03-29T07:10:18.233Z,19.8
2023-03-29T07:15:14.568Z,19.8
2023-03-29T07:20:20.419Z,19.8
2023-03-29T07:25:24.290Z,19.8
2023-03-29T07:30:19.607Z,19.8
2023-03-29T07:35:20.429Z,19.8
2023-03-29T07:40:22.259Z,19.8
2023-03-29T07:45:18.260Z,19.8
2023-03-29T07:50:14.505Z,19.8
2023-03-29T07:55:22.436Z,19.8
2023-03-29T08:00:20.527Z,19.8
2023-03-29T08:05:23.394Z,19.8
2023-03-29T08:10:16.271Z,19.8
2023-03-29T08:15:18.977Z,19.9
2023-03-29T08:20:13.899Z,19.9
2023-03-29T08:25:15.655Z,19.9
2023-03-29T08:30:16.028Z,19.9
2023-03-29T08:35:16.440Z,19.9
2023-03-29T08:40:15.537Z,19.9
2023-03-29T08:45:14.576Z,19.9
2023-03-29T08:50:20.441Z,19.9
2023-03-29T08:55:20.302Z,19.9
2023-03-29T09:00:24.357Z,19.9
2023-03-29T09:05:18.521Z,19.9
2023-03-29T09:10:17.680Z,19.9
2023-03-29T09:15:22.079Z,19.9
2023-03-29T09:20:18.250Z,19.9
2023-03-29T09:25:15.005Z,20
2023-03-29T09:30:18.071Z,20
2023-03-29T09:35:16.642Z,20
2023-03-29T09:40:16.640Z,20
2023-03-29T09:45:13.910Z,20
2023-03-29T09:50:27.622Z,20
2023-03-29T09:55:14.592Z,20
2023-03-29T10:00:13.654Z,20
2023-03-29T10:05:20.519Z,20
2023-03-29T10:10:16.396Z,20
2023-03-29T10:15:50.124Z,20
2023-03-29T10:20:37.165Z,20
2023-03-29T10:25:16.827Z,20
2023-03-29T10:30:16.705Z,20
2023-03-29T10:35:25.815Z,20
2023-03-29T10:40:23.923Z,20
2023-03-29T10:45:18.259Z,20
2023-03-29T10:50:17.631Z,20
2023-03-29T10:55:14.008Z,20.1
2023-03-29T11:00:14.085Z,20.1
2023-03-29T11:05:15.668Z,20.2
2023-03-29T11:10:22.685Z,20.2
2023-03-29T11:15:18.795Z,20.2
2023-03-29T11:20:20.662Z,20.2
2023-03-29T11:25:18.967Z,20.2
2023-03-29T11:30:16.060Z,20.2
2023-03-29T11:35:20.534Z,20.2
2023-03-29T11:40:18.339Z,20.2
2023-03-29T11:45:17.645Z,20.2
2023-03-29T11:50:21.848Z,20.2
2023-03-29T11:55:21.933Z,20.2
2023-03-29T12:00:16.094Z,20.1
2023-03-29T12:05:18.167Z,20.2
2023-03-29T12:10:24.469Z,20.1
2023-03-29T12:15:26.448Z,20.1
2023-03-29T12:20:20.499Z,20.1
2023-03-29T12:25:19.740Z,20.1
2023-03-29T12:30:14.682Z,20.1
2023-03-29T12:35:17.689Z,20.1
2023-03-29T12:40:13.920Z,20.1
2023-03-29T12:45:18.037Z,20.1
2023-03-29T12:50:26.421Z,20.2
2023-03-29T12:55:18.391Z,20.1
2023-03-29T13:00:15.996Z,20.1
2023-03-29T13:05:14.511Z,20.1
2023-03-29T13:10:14.753Z,20.1
2023-03-29T13:15:13.790Z,20.1
2023-03-29T13:20:15.747Z,20.1
2023-03-29T13:25:19.766Z,20.1
2023-03-29T13:30:13.625Z,20.1
2023-03-29T13:35:18.595Z,20.1
2023-03-29T13:40:14.011Z,20.1
2023-03-29T13:45:19.948Z,20.1
2023-03-29T13:50:17.786Z,20.1
2023-03-29T13:55:22.161Z,20.1
2023-03-29T14:00:18.293Z,20.1
2023-03-29T14:05:17.767Z,20.1
2023-03-29T14:10:20.561Z,20.1
2023-03-29T14:15:18.623Z,20.2
2023-03-29T14:20:19.980Z,20.2
2023-03-29T14:25:19.987Z,20.2
2023-03-29T14:30:14.097Z,20.2
2023-03-29T14:35:18.323Z,20.2
2023-03-29T14:40:18.293Z,20.2
2023-03-29T14:45:13.549Z,20.2
2023-03-29T14:50:23.096Z,20.2
2023-03-29T14:55:21.918Z,20.2
2023-03-29T15:00:20.360Z,20.3
2023-03-29T15:05:17.815Z,20.3
2023-03-29T15:10:18.350Z,20.3
2023-03-29T15:15:18.514Z,20.3
2023-03-29T15:20:13.834Z,20.3
2023-03-29T15:25:19.873Z,20.3
2023-03-29T15:35:16.287Z,20.3
2023-03-29T15:40:18.605Z,20.3
2023-03-29T15:45:18.019Z,20.2
2023-03-29T15:50:16.702Z,20.3
2023-03-29T15:55:15.822Z,20.2
2023-03-29T16:00:23.714Z,20.2
2023-03-29T16:05:21.922Z,20.2
2023-03-29T16:10:17.886Z,20.2
2023-03-29T16:15:16.138Z,20.2
2023-03-29T16:20:18.404Z,20.2
2023-03-29T16:25:13.623Z,20.2
2023-03-29T16:30:20.265Z,20.2
2023-03-29T16:35:18.227Z,20.2
2023-03-29T16:40:20.624Z,20.2
2023-03-29T16:45:24.686Z,20.2
2023-03-29T16:50:14.851Z,20.2
2023-03-29T16:55:21.783Z,20.2
2023-03-29T17:00:31.669Z,20.2
2023-03-29T17:05:20.277Z,20.3
2023-03-29T17:10:16.363Z,20.2
2023-03-29T17:15:18.765Z,20.3
2023-03-29T17:20:22.155Z,20.3
2023-03-29T17:25:15.925Z,20.2
2023-03-29T17:30:17.937Z,20.2
2023-03-29T17:35:16.264Z,20.2
2023-03-29T17:40:16.408Z,20.3
2023-03-29T17:45:16.515Z,20.3
2023-03-29T17:50:17.623Z,20.3
2023-03-29T17:55:17.962Z,20.3
2023-03-29T18:00:18.325Z,20.3
2023-03-29T18:05:15.993Z,20.3
2023-03-29T18:10:13.911Z,20.3
2023-03-29T18:15:13.854Z,20.3
2023-03-29T18:20:13.685Z,20.3
2023-03-29T18:25:14.522Z,20.3
2023-03-29T18:30:16.463Z,20.3
2023-03-29T18:35:15.571Z,20.4
2023-03-29T18:40:20.728Z,20.4
2023-03-29T18:45:14.706Z,20.4
2023-03-29T18:50:19.026Z,20.5
2023-03-29T18:55:17.865Z,20.5
2023-03-29T19:00:14.123Z,20.5
2023-03-29T19:05:14.063Z,20.5
2023-03-29T19:10:15.947Z,20.5
2023-03-29T19:15:15.852Z,20.5
2023-03-29T19:20:18.586Z,20.5
2023-03-29T19:25:13.822Z,20.5
2023-03-29T19:30:20.105Z,20.5
2023-03-29T19:35:18.245Z,20.5
2023-03-29T19:40:18.739Z,20.5
2023-03-29T19:45:16.232Z,20.5
2023-03-29T19:50:18.411Z,20.5
2023-03-29T19:55:15.691Z,20.6
2023-03-29T20:00:14.446Z,20.6
2023-03-29T20:05:16.683Z,20.5
2023-03-29T20:10:15.819Z,20.5
2023-03-29T20:15:29.738Z,20.6
2023-03-29T20:20:21.636Z,20.6
2023-03-29T20:25:18.435Z,20.6
2023-03-29T20:30:13.851Z,20.5
2023-03-29T20:35:15.737Z,20.5
2023-03-29T20:40:13.560Z,20.5
2023-03-29T20:45:16.335Z,20.5
2023-03-29T20:50:24.278Z,20.4
2023-03-29T20:55:16.176Z,20.4
2023-03-29T21:00:16.431Z,20.4
2023-03-29T21:05:14.542Z,20.4
2023-03-29T21:10:20.664Z,20.4
2023-03-29T21:15:18.832Z,20.4
2023-03-29T21:20:16.195Z,20.4
2023-03-29T21:25:24.022Z,20.3
2023-03-29T21:30:15.973Z,20.3
2023-03-29T21:35:15.890Z,20.3
2023-03-29T21:40:13.917Z,20.3
2023-03-29T21:45:21.982Z,20.3
2023-03-29T21:50:24.034Z,20.3
2023-03-29T21:55:27.979Z,20.2
2023-03-29T22:00:14.269Z,20.2
2023-03-29T22:05:18.193Z,20.2
2023-03-29T22:10:20.717Z,20.2
2023-03-29T22:15:19.876Z,20.2
2023-03-29T22:20:20.045Z,20.2
2023-03-29T22:25:18.030Z,20.2
2023-03-29T22:30:16.303Z,20.2
2023-03-29T22:35:18.377Z,20.1
2023-03-29T22:40:15.955Z,20.1
2023-03-29T22:45:15.991Z,20.1
2023-03-29T22:50:15.845Z,20.1
2023-03-29T22:55:17.770Z,20.1
2023-03-29T23:00:18.410Z,20.1
2023-03-29T23:05:15.603Z,20.1
2023-03-29T23:10:16.461Z,20
2023-03-29T23:15:16.675Z,20
2023-03-29T23:20:13.901Z,20
2023-03-29T23:25:21.718Z,20
2023-03-29T23:30:15.679Z,20
2023-03-29T23:35:14.669Z,20
2023-03-29T23:40:18.780Z,20
2023-03-29T23:45:14.142Z,20
2023-03-29T23:50:26.097Z,20
2023-03-29T23:55:13.920Z,20
